createdAt,value
2018-07-11T00:01:48.064Z,4.90
2018-07-11T00:04:16.629Z,4.87
2018-07-11T00:06:45.122Z,4.87
2018-07-11T00:09:13.655Z,4.40
2018-07-11T00:11:42.643Z,4.73
2018-07-11T00:14:11.109Z,4.30
2018-07-11T00:16:43.806Z,4.67
2018-07-11T00:19:12.666Z,4.70
2018-07-11T00:21:41.289Z,4.73
2018-07-11T00:24:09.810Z,4.90
2018-07-11T00:26:38.378Z,5.00
2018-07-11T00:29:07.163Z,4.77
2018-07-11T00:31:35.830Z,4.67
2018-07-11T00:34:04.437Z,4.70
2018-07-11T00:36:33.261Z,5.10
2018-07-11T00:39:01.870Z,4.70
2018-07-11T00:41:30.350Z,5.20
2018-07-11T00:43:58.964Z,4.87
2018-07-11T00:46:27.530Z,5.03
2018-07-11T00:48:56.024Z,5.30
2018-07-11T00:51:24.538Z,5.30
2018-07-11T00:53:53.417Z,4.77
2018-07-11T00:56:22.002Z,4.93
2018-07-11T00:58:52.447Z,5.00
2018-07-11T01:01:21.327Z,4.70
2018-07-11T01:03:53.729Z,5.40
2018-07-11T01:06:22.262Z,4.90
2018-07-11T01:08:55.273Z,5.33
2018-07-11T01:11:24.151Z,5.07
2018-07-11T01:13:52.965Z,5.07
2018-07-11T01:16:22.850Z,5.10
2018-07-11T01:18:56.338Z,4.97
2018-07-11T01:21:25.202Z,4.50
2018-07-11T01:23:53.770Z,5.13
2018-07-11T01:26:26.889Z,5.17
2018-07-11T01:28:55.622Z,5.20
2018-07-11T01:31:24.498Z,5.17
2018-07-11T01:35:17.561Z,4.83
2018-07-11T01:37:46.206Z,4.90
2018-07-11T01:40:15.033Z,4.70
2018-07-11T01:42:43.651Z,4.47
2018-07-11T01:45:12.211Z,4.20
2018-07-11T01:47:40.796Z,3.90
2018-07-11T01:50:09.425Z,4.63
2018-07-11T01:52:49.267Z,4.60
2018-07-11T01:55:17.817Z,4.63
2018-07-11T01:57:47.045Z,4.47
2018-07-11T02:00:16.169Z,4.27
2018-07-11T02:02:44.800Z,4.50
2018-07-11T02:05:13.315Z,4.30
2018-07-11T02:07:42.000Z,4.23
2018-07-11T02:10:10.582Z,3.87
2018-07-11T02:12:40.300Z,4.07
2018-07-11T02:15:08.818Z,4.20
2018-07-11T02:17:38.577Z,4.43
2018-07-11T02:20:08.969Z,3.90
2018-07-11T02:25:34.062Z,4.80
2018-07-11T02:28:02.577Z,4.67
2018-07-11T02:30:32.310Z,4.40
2018-07-11T02:33:00.858Z,4.63
2018-07-11T02:35:29.714Z,4.03
2018-07-11T02:37:58.162Z,4.50
2018-07-11T02:40:28.224Z,4.20
2018-07-11T02:42:56.789Z,3.67
2018-07-11T02:45:25.397Z,3.83
2018-07-11T02:47:53.908Z,4.20
2018-07-11T02:50:23.062Z,3.87
2018-07-11T02:52:51.736Z,3.93
2018-07-11T02:55:20.362Z,3.67
2018-07-11T02:57:49.176Z,3.90
2018-07-11T03:00:17.747Z,4.83
2018-07-11T03:02:47.078Z,4.40
2018-07-11T03:05:15.796Z,4.77
2018-07-11T03:07:44.468Z,4.37
2018-07-11T03:10:13.459Z,4.40
2018-07-11T03:12:42.236Z,4.63
2018-07-11T03:15:10.926Z,4.70
2018-07-11T03:17:39.366Z,4.10
2018-07-11T04:42:06.372Z,5.30
2018-07-11T04:44:34.816Z,5.40
2018-07-11T04:47:03.377Z,5.80
2018-07-11T04:49:31.849Z,6.57
2018-07-11T04:52:00.401Z,5.83
2018-07-11T04:54:28.888Z,6.10
2018-07-11T04:56:57.449Z,6.33
2018-07-11T04:59:25.913Z,6.33
2018-07-11T05:01:54.514Z,6.90
2018-07-11T05:04:23.296Z,6.50
2018-07-11T05:06:51.788Z,6.57
2018-07-11T05:09:20.173Z,5.90
2018-07-11T05:11:48.654Z,5.67
2018-07-11T05:14:17.116Z,5.67
2018-07-11T05:16:46.332Z,6.33
2018-07-11T05:19:14.810Z,5.60
2018-07-11T05:21:43.571Z,5.97
2018-07-11T05:24:12.013Z,6.00
2018-07-11T05:26:40.188Z,5.97
2018-07-11T05:29:08.605Z,5.80
2018-07-11T05:31:37.245Z,5.63
2018-07-11T05:34:06.001Z,6.20
2018-07-11T05:36:34.508Z,5.87
2018-07-11T05:39:03.081Z,5.30
2018-07-11T05:41:31.608Z,6.00
2018-07-11T05:44:00.124Z,5.70
2018-07-11T05:46:28.596Z,6.57
2018-07-11T05:48:57.030Z,7.50
2018-07-11T05:51:26.564Z,6.90
2018-07-11T05:53:55.042Z,6.53
2018-07-11T05:56:23.984Z,6.73
2018-07-11T05:58:52.779Z,6.67
2018-07-11T06:01:21.678Z,6.60
2018-07-11T06:03:50.241Z,7.60
2018-07-11T06:06:18.846Z,6.90
2018-07-11T06:08:46.976Z,6.67
2018-07-11T06:11:24.222Z,7.17
2018-07-11T06:13:53.976Z,7.10
2018-07-11T06:16:23.043Z,6.60
2018-07-11T06:18:51.657Z,6.47
2018-07-11T06:21:22.803Z,6.77
2018-07-11T06:23:51.333Z,6.80
2018-07-11T06:26:19.924Z,6.73
2018-07-11T06:28:48.328Z,6.67
2018-07-11T06:31:17.844Z,6.90
2018-07-11T06:33:47.085Z,6.80
2018-07-11T06:36:16.399Z,6.73
2018-07-11T06:38:44.908Z,7.50
2018-07-11T06:41:14.520Z,7.10
2018-07-11T06:43:43.254Z,7.77
2018-07-11T06:46:12.460Z,7.60
2018-07-11T06:48:40.984Z,8.00
2018-07-11T06:51:10.576Z,8.73
2018-07-11T06:53:39.037Z,8.27
2018-07-11T06:56:07.642Z,8.50
2018-07-11T06:58:36.375Z,8.83
2018-07-11T07:01:04.981Z,8.60
2018-07-11T07:03:33.460Z,8.97
2018-07-11T07:06:02.055Z,8.77
2018-07-11T07:08:30.620Z,8.83
2018-07-11T07:11:00.244Z,8.17
2018-07-11T07:13:28.715Z,10.10
2018-07-11T07:15:57.343Z,9.37
2018-07-11T07:18:25.802Z,9.63
2018-07-11T07:20:55.378Z,9.83
2018-07-11T07:23:23.815Z,9.60
2018-07-11T07:25:52.669Z,10.50
2018-07-11T07:28:21.191Z,10.27
2018-07-11T07:30:49.375Z,9.77
2018-07-11T07:33:17.832Z,10.53
2018-07-11T07:35:46.696Z,10.63
2018-07-11T07:38:16.152Z,11.90
2018-07-11T07:40:46.403Z,10.23
2018-07-11T07:43:14.912Z,10.57
2018-07-11T07:45:44.643Z,11.43
2018-07-11T07:48:13.184Z,11.87
2018-07-11T07:50:41.729Z,13.57
2018-07-11T07:53:10.248Z,14.27
2018-07-11T07:55:38.844Z,13.47
2018-07-11T07:58:07.458Z,14.13
2018-07-11T08:00:37.228Z,13.90
2018-07-11T08:03:06.172Z,14.53
2018-07-11T08:05:34.855Z,13.30
2018-07-11T08:08:03.277Z,13.93
2018-07-11T08:10:31.765Z,13.90
2018-07-11T08:13:00.273Z,13.07
2018-07-11T08:15:28.913Z,13.17
2018-07-11T08:17:57.373Z,13.03
2018-07-11T08:20:27.021Z,12.73
2018-07-11T08:23:12.002Z,12.43
2018-07-11T08:25:52.199Z,12.30
2018-07-11T08:29:34.676Z,12.87
2018-07-11T08:32:17.262Z,13.13
2018-07-11T08:35:01.867Z,13.37
2018-07-11T08:37:56.653Z,12.87
2018-07-11T08:40:42.277Z,13.40
2018-07-11T08:45:26.667Z,12.83
2018-07-11T08:48:16.333Z,11.93
2018-07-11T08:51:55.072Z,12.53
2018-07-11T08:56:43.881Z,13.30
2018-07-11T09:01:26.984Z,11.87
2018-07-11T09:04:06.553Z,12.30
2018-07-11T09:06:46.536Z,11.77
2018-07-11T09:11:31.076Z,11.37
2018-07-11T09:14:17.208Z,11.53
2018-07-11T09:17:03.229Z,11.43
2018-07-11T09:19:55.170Z,11.33
2018-07-11T09:22:34.811Z,10.30
2018-07-11T09:25:03.381Z,11.50
2018-07-11T09:27:32.010Z,11.03
2018-07-11T09:30:00.566Z,11.10
2018-07-11T09:32:29.157Z,10.93
2018-07-11T09:34:57.961Z,11.03
2018-07-11T09:37:26.473Z,12.13
2018-07-11T09:39:55.074Z,10.73
2018-07-11T09:42:23.644Z,10.90
2018-07-11T09:44:52.129Z,10.90
2018-07-11T09:47:27.075Z,11.23
2018-07-11T09:49:55.531Z,11.03
2018-07-11T09:52:24.134Z,10.77
2018-07-11T09:54:53.217Z,11.93
2018-07-11T09:57:21.750Z,11.73
2018-07-11T09:59:50.249Z,10.67
2018-07-11T10:02:18.795Z,10.57
2018-07-11T10:04:47.268Z,11.60
2018-07-11T10:07:16.597Z,10.57
2018-07-11T10:09:46.140Z,10.70
2018-07-11T10:12:15.324Z,10.50
2018-07-11T10:14:43.892Z,10.80
2018-07-11T10:17:12.438Z,10.50
2018-07-11T10:19:41.004Z,10.30
2018-07-11T10:22:10.160Z,9.93
2018-07-11T10:24:38.644Z,10.30
2018-07-11T10:27:07.217Z,10.50
2018-07-11T10:29:35.658Z,10.57
2018-07-11T10:32:04.213Z,10.10
2018-07-11T10:34:32.688Z,10.33
2018-07-11T10:37:01.340Z,9.87
2018-07-11T10:39:29.850Z,10.03
2018-07-11T10:41:58.512Z,9.90
2018-07-11T10:44:27.025Z,9.83
2018-07-11T10:47:00.756Z,9.40
2018-07-11T10:49:29.220Z,9.87
2018-07-11T10:51:57.812Z,11.17
2018-07-11T10:54:26.431Z,9.23
2018-07-11T10:56:55.213Z,9.03
2018-07-11T10:59:23.915Z,9.83
2018-07-11T11:01:52.529Z,9.40
2018-07-11T11:04:22.245Z,9.20
2018-07-11T11:06:51.421Z,9.77
2018-07-11T11:09:19.879Z,9.10
2018-07-11T11:11:48.542Z,8.70
2018-07-11T11:14:17.075Z,8.60
2018-07-11T11:16:45.783Z,8.50
2018-07-11T11:19:15.030Z,8.03
2018-07-11T11:21:44.081Z,8.20
2018-07-11T11:24:12.620Z,8.17
2018-07-11T11:26:41.247Z,8.40
2018-07-11T11:29:10.065Z,7.53
2018-07-11T11:31:38.865Z,7.60
2018-07-11T11:34:07.427Z,7.30
2018-07-11T11:36:36.117Z,6.50
2018-07-11T11:39:04.714Z,7.33
2018-07-11T11:41:34.274Z,7.87
2018-07-11T11:44:03.426Z,7.57
2018-07-11T11:46:32.057Z,7.03
2018-07-11T11:49:00.552Z,7.93
2018-07-11T11:51:29.376Z,8.30
2018-07-11T11:53:57.901Z,8.00
2018-07-11T11:56:26.519Z,8.87
2018-07-11T11:58:55.306Z,8.77
2018-07-11T12:01:23.925Z,7.23
2018-07-11T12:03:52.366Z,9.10
2018-07-11T12:06:20.990Z,8.27
2018-07-11T12:08:49.416Z,8.53
2018-07-11T12:11:17.984Z,7.40
2018-07-11T12:13:46.542Z,7.57
2018-07-11T12:16:15.788Z,7.23
2018-07-11T12:18:44.618Z,7.30
2018-07-11T12:21:14.553Z,7.17
2018-07-11T12:23:43.200Z,6.80
2018-07-11T12:26:12.503Z,7.00
2018-07-11T12:28:41.013Z,6.90
2018-07-11T12:31:10.916Z,7.27
2018-07-11T12:33:39.449Z,6.63
2018-07-11T12:36:08.126Z,7.70
2018-07-11T12:38:36.683Z,7.37
2018-07-11T12:41:06.873Z,7.27
2018-07-11T12:43:35.503Z,7.63
2018-07-11T12:46:04.275Z,7.53
2018-07-11T12:48:38.252Z,7.10
2018-07-11T12:51:06.835Z,6.67
2018-07-11T12:53:35.741Z,6.10
2018-07-11T12:56:04.316Z,6.20
2018-07-11T12:58:33.036Z,6.03
2018-07-11T13:01:01.662Z,6.20
2018-07-11T13:03:30.214Z,6.10
2018-07-11T13:05:58.758Z,5.83
2018-07-11T13:08:27.705Z,5.50
2018-07-11T13:10:57.221Z,5.20
2018-07-11T13:13:26.532Z,5.67
2018-07-11T13:15:55.782Z,5.50
2018-07-11T13:18:25.057Z,5.70
2018-07-11T13:20:54.710Z,6.10
2018-07-11T13:23:23.201Z,5.90
2018-07-11T13:25:51.750Z,5.50
2018-07-11T13:28:20.785Z,5.37
2018-07-11T13:30:49.226Z,4.80
2018-07-11T13:33:18.641Z,4.80
2018-07-11T13:35:47.177Z,5.23
2018-07-11T13:38:16.479Z,4.80
2018-07-11T13:40:45.914Z,5.07
2018-07-11T13:43:14.215Z,5.30
2018-07-11T13:45:43.379Z,5.50
2018-07-11T13:48:12.052Z,5.53
2018-07-11T13:50:40.509Z,5.47
2018-07-11T13:53:09.201Z,5.30
2018-07-11T13:55:37.847Z,5.27
2018-07-11T13:58:06.875Z,5.47
2018-07-11T14:00:35.330Z,5.60
2018-07-11T14:03:04.209Z,5.50
2018-07-11T14:05:32.694Z,5.67
2018-07-11T14:08:01.183Z,5.43
2018-07-11T14:10:29.664Z,5.40
2018-07-11T14:12:58.226Z,4.90
2018-07-11T14:15:27.019Z,5.53
2018-07-11T14:17:55.560Z,5.37
2018-07-11T14:20:24.185Z,6.10
2018-07-11T14:23:10.930Z,5.83
2018-07-11T14:25:40.792Z,6.90
2018-07-11T14:28:09.516Z,7.20
2018-07-11T14:30:39.401Z,7.00
2018-07-11T14:33:09.316Z,6.90
2018-07-11T14:35:37.795Z,6.80
2018-07-11T14:38:06.574Z,6.10
2018-07-11T14:40:36.012Z,6.50
2018-07-11T14:43:04.485Z,6.10
2018-07-11T14:45:34.060Z,5.97
2018-07-11T14:48:10.264Z,6.23
2018-07-11T14:50:38.840Z,6.03
2018-07-11T14:53:07.711Z,6.43
2018-07-11T14:55:36.321Z,5.70
2018-07-11T14:58:05.126Z,6.03
2018-07-11T15:00:33.781Z,6.50
2018-07-11T15:03:02.980Z,6.63
2018-07-11T15:05:31.443Z,6.50
2018-07-11T15:08:00.243Z,7.13
2018-07-11T15:10:28.742Z,7.57
2018-07-11T15:12:57.273Z,6.40
2018-07-11T15:15:25.735Z,6.40
2018-07-11T15:17:56.556Z,6.30
2018-07-11T15:20:25.314Z,6.17
2018-07-11T15:22:54.688Z,6.27
2018-07-11T15:25:23.594Z,6.70
2018-07-11T15:27:52.376Z,6.20
2018-07-11T15:30:20.822Z,6.50
2018-07-11T15:32:49.400Z,6.40
2018-07-11T15:35:17.955Z,6.40
2018-07-11T15:37:46.484Z,5.83
2018-07-11T15:40:15.424Z,6.03
2018-07-11T15:42:45.706Z,5.80
2018-07-11T15:45:14.274Z,5.70
2018-07-11T15:47:44.325Z,5.20
2018-07-11T15:50:13.424Z,5.57
2018-07-11T15:52:42.031Z,5.13
2018-07-11T15:55:10.643Z,5.53
2018-07-11T15:57:46.921Z,5.40
2018-07-11T16:00:15.911Z,5.40
2018-07-11T16:02:47.800Z,5.67
2018-07-11T16:05:23.309Z,5.43
2018-07-11T16:07:53.879Z,4.60
2018-07-11T16:10:28.012Z,4.80
2018-07-11T16:12:56.529Z,5.67
2018-07-11T16:15:25.148Z,5.30
2018-07-11T16:17:53.829Z,4.87
2018-07-11T16:20:22.463Z,5.40
2018-07-11T16:22:51.273Z,5.00
2018-07-11T16:25:20.203Z,4.60
2018-07-11T16:27:49.087Z,4.77
2018-07-11T16:30:18.012Z,4.63
2018-07-11T16:32:46.645Z,4.57
2018-07-11T16:35:16.020Z,4.57
2018-07-11T16:37:45.242Z,4.70
2018-07-11T16:40:14.481Z,4.50
2018-07-11T16:42:43.052Z,4.57
2018-07-11T16:45:11.586Z,4.73
2018-07-11T16:47:40.203Z,4.10
2018-07-11T16:50:08.731Z,4.30
2018-07-11T16:52:37.234Z,4.20
2018-07-11T16:55:06.124Z,4.23
2018-07-11T16:57:50.869Z,3.67
2018-07-11T17:00:22.158Z,3.87
2018-07-11T17:03:11.092Z,4.07
2018-07-11T17:05:52.357Z,4.03
2018-07-11T17:08:29.968Z,4.07
2018-07-11T17:11:09.412Z,4.07
2018-07-11T17:13:37.975Z,4.23
2018-07-11T17:16:06.971Z,3.60
2018-07-11T17:18:41.409Z,3.80
2018-07-11T17:21:10.779Z,3.80
2018-07-11T17:23:45.951Z,3.50
2018-07-11T17:26:14.426Z,3.20
2018-07-11T17:28:43.454Z,3.43
2018-07-11T17:31:12.017Z,3.53
2018-07-11T17:33:40.580Z,3.60
2018-07-11T17:36:11.584Z,3.03
2018-07-11T17:38:40.259Z,3.20
2018-07-11T17:41:08.746Z,3.07
2018-07-11T17:43:38.609Z,3.30
2018-07-11T17:46:08.465Z,3.00
2018-07-11T17:48:50.120Z,3.40
2018-07-11T17:52:24.738Z,3.10
2018-07-11T17:55:14.416Z,2.90
2018-07-11T17:57:54.284Z,2.90
2018-07-11T18:00:46.681Z,2.90
2018-07-11T18:03:41.866Z,2.80
2018-07-11T18:06:17.707Z,3.10
2018-07-11T18:09:22.475Z,3.07
2018-07-11T18:11:59.175Z,3.47
2018-07-11T18:14:55.610Z,2.93
2018-07-11T18:19:45.432Z,3.30
2018-07-11T18:22:24.214Z,3.20
2018-07-11T18:25:06.663Z,3.50
2018-07-11T18:27:46.752Z,3.60
2018-07-11T18:30:34.515Z,2.90
2018-07-11T18:33:38.751Z,3.70
2018-07-11T18:37:20.335Z,3.07
2018-07-11T18:40:01.327Z,3.33
2018-07-11T18:42:39.773Z,3.40
2018-07-11T18:45:19.396Z,3.13
2018-07-11T18:48:00.077Z,3.13
2018-07-11T18:51:50.515Z,3.13
2018-07-11T18:54:49.189Z,3.50
2018-07-11T18:57:27.916Z,2.80
2018-07-11T19:00:09.495Z,3.17
2018-07-11T19:03:48.384Z,2.93
2018-07-11T19:11:25.494Z,2.90
2018-07-11T19:14:06.752Z,2.87
2018-07-11T19:17:04.311Z,2.73
2018-07-11T19:19:37.108Z,2.77
2018-07-11T19:22:14.511Z,2.60
2018-07-11T19:25:03.098Z,2.70
2018-07-11T19:27:49.545Z,2.50
2018-07-11T19:30:29.095Z,2.57
2018-07-11T19:35:18.643Z,2.67
2018-07-11T19:38:06.372Z,2.70
2018-07-11T19:40:50.572Z,2.90
2018-07-11T19:43:33.633Z,2.87
2018-07-11T19:46:12.197Z,2.67
2018-07-11T19:48:52.270Z,2.70
2018-07-11T19:51:59.543Z,2.70
2018-07-11T19:54:40.387Z,2.47
2018-07-11T19:57:09.017Z,2.70
2018-07-11T19:59:37.921Z,2.63
2018-07-11T20:02:06.405Z,2.50
2018-07-11T20:04:35.037Z,2.50
2018-07-11T20:07:03.556Z,2.50
2018-07-11T20:09:32.084Z,2.40
2018-07-11T20:12:00.632Z,2.20
2018-07-11T20:14:29.176Z,2.70
2018-07-11T20:16:57.649Z,2.43
2018-07-11T20:19:26.190Z,2.57
2018-07-11T20:21:55.062Z,2.37
2018-07-11T20:24:23.489Z,2.40
2018-07-11T20:26:52.093Z,2.40
2018-07-11T20:29:20.496Z,2.43
2018-07-11T20:31:49.260Z,2.73
2018-07-11T20:34:17.724Z,2.57
2018-07-11T20:36:46.260Z,2.67
2018-07-11T20:39:14.741Z,2.70
2018-07-11T20:41:43.282Z,2.50
2018-07-11T20:44:11.732Z,2.73
2018-07-11T20:46:40.285Z,2.50
2018-07-11T20:49:14.236Z,2.73
2018-07-11T20:51:42.752Z,2.67
2018-07-11T20:54:11.239Z,2.50
2018-07-11T20:56:39.710Z,2.87
2018-07-11T20:59:19.577Z,2.67
2018-07-11T21:03:00.793Z,2.57
2018-07-11T21:07:47.997Z,2.60
2018-07-11T21:10:29.079Z,2.90
2018-07-11T21:14:06.747Z,2.87
2018-07-11T21:18:50.649Z,3.00
2018-07-11T21:21:19.227Z,3.20
2018-07-11T21:23:47.730Z,2.90
2018-07-11T21:26:16.391Z,2.97
2018-07-11T21:28:44.798Z,2.80
2018-07-11T21:31:13.267Z,2.80
2018-07-11T21:33:41.765Z,2.83
2018-07-11T21:36:10.268Z,2.90
2018-07-11T21:38:38.718Z,3.60
2018-07-11T21:41:07.703Z,3.20
2018-07-11T21:43:36.161Z,3.00
2018-07-11T21:46:05.105Z,3.03
2018-07-11T21:48:33.573Z,3.00
2018-07-11T21:51:02.516Z,3.00
2018-07-11T21:53:31.088Z,2.90
2018-07-11T21:55:59.589Z,3.27
2018-07-11T21:58:29.279Z,3.33
2018-07-11T22:01:03.140Z,3.20
2018-07-11T22:03:31.990Z,3.30
2018-07-11T22:06:00.753Z,3.17
2018-07-11T22:08:29.168Z,3.33
2018-07-11T22:10:57.533Z,3.30
2018-07-11T22:13:26.542Z,3.07
2018-07-11T22:15:55.613Z,3.27
2018-07-11T22:18:31.985Z,3.37
2018-07-11T22:20:59.960Z,3.33
2018-07-11T22:23:27.605Z,3.10
2018-07-11T22:25:55.095Z,3.23
2018-07-11T22:28:22.415Z,3.37
2018-07-11T22:30:49.747Z,3.33
2018-07-11T22:33:17.188Z,3.50
2018-07-11T22:35:44.507Z,3.53
2018-07-11T22:38:12.266Z,3.60
2018-07-11T22:40:39.966Z,3.33
2018-07-11T22:43:07.605Z,3.67
2018-07-11T22:45:35.125Z,3.63
2018-07-11T22:48:02.639Z,3.70
2018-07-11T22:50:30.281Z,3.80
2018-07-11T22:52:57.593Z,3.87
2018-07-11T22:55:25.452Z,3.60
2018-07-11T22:57:53.245Z,3.20
2018-07-11T23:00:20.614Z,3.53
2018-07-11T23:02:47.978Z,3.93
2018-07-11T23:05:15.359Z,3.30
2018-07-11T23:07:42.682Z,3.90
2018-07-11T23:10:10.007Z,3.50
2018-07-11T23:12:37.377Z,3.37
2018-07-11T23:15:04.740Z,3.53
2018-07-11T23:17:32.114Z,3.37
2018-07-11T23:19:59.428Z,3.70
2018-07-11T23:22:26.844Z,3.80
2018-07-11T23:24:54.465Z,3.57
2018-07-11T23:27:21.812Z,3.43
2018-07-11T23:29:49.167Z,3.60
2018-07-11T23:32:16.515Z,3.27
2018-07-11T23:34:43.856Z,4.00
2018-07-11T23:37:11.188Z,3.43
2018-07-11T23:39:38.507Z,4.23
2018-07-11T23:42:05.831Z,3.63
2018-07-11T23:44:33.172Z,3.50
2018-07-11T23:47:00.501Z,3.77
2018-07-11T23:49:27.816Z,3.80
2018-07-11T23:51:55.173Z,3.87
2018-07-11T23:54:22.493Z,3.53
2018-07-11T23:56:49.832Z,3.13
2018-07-11T23:59:17.175Z,3.80
